createdAt,value
2023-03-11T00:01:13.069Z,12.43
2023-03-11T00:03:40.438Z,11.40
2023-03-11T00:06:10.294Z,12.37
2023-03-11T00:08:41.650Z,16.87
2023-03-11T00:11:08.988Z,11.10
2023-03-11T00:13:50.841Z,14.57
2023-03-11T00:16:17.886Z,11.50
2023-03-11T00:18:44.788Z,10.60
2023-03-11T00:21:17.296Z,11.47
2023-03-11T00:23:45.442Z,11.53
2023-03-11T00:26:12.680Z,9.07
2023-03-11T00:28:39.766Z,10.87
2023-03-11T00:31:06.871Z,10.93
2023-03-11T00:33:33.769Z,9.10
2023-03-11T00:36:00.788Z,10.90
2023-03-11T00:38:27.891Z,10.03
2023-03-11T00:40:56.971Z,10.43
2023-03-11T00:43:24.165Z,12.60
2023-03-11T00:45:51.438Z,10.77
2023-03-11T00:48:18.556Z,14.13
2023-03-11T00:50:47.069Z,10.80
2023-03-11T00:53:14.019Z,16.93
2023-03-11T00:55:41.361Z,12.83
2023-03-11T00:58:11.910Z,11.97
2023-03-11T01:00:51.903Z,10.50
2023-03-11T01:03:18.820Z,14.43
2023-03-11T01:05:46.597Z,9.40
2023-03-11T01:08:13.483Z,15.20
2023-03-11T01:10:40.508Z,11.50
2023-03-11T01:13:07.469Z,17.97
2023-03-11T01:15:37.214Z,12.60
2023-03-11T01:18:06.382Z,13.37
2023-03-11T01:20:35.313Z,14.30
2023-03-11T01:23:02.311Z,15.03
2023-03-11T01:25:29.580Z,11.57
2023-03-11T01:27:59.218Z,10.23
2023-03-11T01:30:27.753Z,11.90
2023-03-11T01:32:56.174Z,8.80
2023-03-11T01:35:25.316Z,9.27
2023-03-11T01:37:54.147Z,10.13
2023-03-11T01:40:45.222Z,16.23
2023-03-11T01:43:46.035Z,11.03
2023-03-11T01:46:18.716Z,12.73
2023-03-11T01:48:55.236Z,14.57
2023-03-11T01:51:34.417Z,12.30
2023-03-11T01:54:06.039Z,10.47
2023-03-11T01:56:34.671Z,7.13
2023-03-11T01:59:02.299Z,10.03
2023-03-11T02:01:30.142Z,11.30
2023-03-11T02:03:58.673Z,13.87
2023-03-11T02:06:26.854Z,12.17
2023-03-11T02:08:55.132Z,13.70
2023-03-11T02:11:28.892Z,10.47
2023-03-11T02:14:01.363Z,10.80
2023-03-11T02:16:28.653Z,11.10
2023-03-11T02:19:01.035Z,12.60
2023-03-11T02:21:32.141Z,13.37
2023-03-11T02:24:08.541Z,10.60
2023-03-11T02:26:35.465Z,9.77
2023-03-11T02:29:06.027Z,12.80
2023-03-11T02:31:34.458Z,13.90
2023-03-11T02:34:03.953Z,11.90
2023-03-11T02:36:32.074Z,9.87
2023-03-11T02:38:59.181Z,10.70
2023-03-11T02:41:27.154Z,14.23
2023-03-11T02:43:54.842Z,15.77
2023-03-11T02:46:24.328Z,11.00
2023-03-11T02:48:53.840Z,15.43
2023-03-11T02:51:20.900Z,12.57
2023-03-11T02:53:53.847Z,12.80
2023-03-11T02:56:21.514Z,11.97
2023-03-11T02:58:49.918Z,9.40
2023-03-11T03:01:19.809Z,7.50
2023-03-11T03:03:49.504Z,9.97
2023-03-11T03:06:16.554Z,20.03
2023-03-11T03:08:43.505Z,19.93
2023-03-11T03:11:10.765Z,15.87
2023-03-11T03:13:37.720Z,15.67
2023-03-11T03:16:05.933Z,12.77
2023-03-11T03:18:33.711Z,16.07
2023-03-11T03:21:21.093Z,13.33
2023-03-11T03:23:48.314Z,9.77
2023-03-11T03:26:16.469Z,11.80
2023-03-11T03:28:46.561Z,11.43
2023-03-11T03:31:14.082Z,12.40
2023-03-11T03:33:43.088Z,13.03
2023-03-11T03:36:12.604Z,13.83
2023-03-11T03:38:44.082Z,10.93
2023-03-11T03:41:14.264Z,10.93
2023-03-11T03:43:42.478Z,10.63
2023-03-11T03:46:10.214Z,11.13
2023-03-11T03:48:44.579Z,10.90
2023-03-11T03:51:14.018Z,13.73
2023-03-11T03:53:47.041Z,11.17
2023-03-11T03:56:17.942Z,9.33
2023-03-11T03:58:45.549Z,11.70
2023-03-11T04:01:13.490Z,11.40
2023-03-11T04:03:42.006Z,16.23
2023-03-11T04:06:15.082Z,13.40
2023-03-11T04:08:42.539Z,14.30
2023-03-11T04:11:13.403Z,12.33
2023-03-11T04:13:44.713Z,17.20
2023-03-11T04:16:21.552Z,19.87
2023-03-11T04:18:49.285Z,18.37
2023-03-11T04:21:23.035Z,19.37
2023-03-11T04:23:51.868Z,12.93
2023-03-11T04:26:22.407Z,13.93
2023-03-11T04:28:49.450Z,20.63
2023-03-11T04:31:19.004Z,11.10
2023-03-11T04:33:47.335Z,17.07
2023-03-11T04:36:14.691Z,16.50
2023-03-11T04:38:42.494Z,15.03
2023-03-11T04:41:12.249Z,15.00
2023-03-11T04:43:41.099Z,13.00
2023-03-11T04:46:08.120Z,13.00
2023-03-11T04:48:35.649Z,13.70
2023-03-11T04:51:03.042Z,15.03
2023-03-11T04:53:30.143Z,16.93
2023-03-11T04:55:57.726Z,13.67
2023-03-11T04:58:24.934Z,19.63
2023-03-11T05:00:53.133Z,20.40
2023-03-11T05:03:21.464Z,14.77
2023-03-11T05:05:48.917Z,13.53
2023-03-11T05:08:16.783Z,14.80
2023-03-11T05:10:45.036Z,18.30
2023-03-11T05:13:12.569Z,13.77
2023-03-11T05:15:42.357Z,14.17
2023-03-11T05:18:09.318Z,17.30
2023-03-11T05:20:38.719Z,15.77
2023-03-11T05:23:06.592Z,14.40
2023-03-11T05:25:35.833Z,18.53
2023-03-11T05:28:03.875Z,18.53
2023-03-11T05:30:32.621Z,13.43
2023-03-11T05:32:59.900Z,16.03
2023-03-11T05:35:52.754Z,16.43
2023-03-11T05:38:34.442Z,17.90
2023-03-11T05:48:21.488Z,16.10
2023-03-11T05:50:48.980Z,24.30
2023-03-11T05:53:17.232Z,16.40
2023-03-11T05:55:45.706Z,17.30
2023-03-11T05:58:13.246Z,17.23
2023-03-11T06:00:40.537Z,19.70
2023-03-11T06:03:07.743Z,19.23
2023-03-11T06:05:34.842Z,17.23
2023-03-11T06:08:01.902Z,15.90
2023-03-11T06:10:29.264Z,15.37
2023-03-11T06:12:56.359Z,14.27
2023-03-11T06:15:27.203Z,15.90
2023-03-11T06:17:54.992Z,13.90
2023-03-11T06:20:22.317Z,16.10
2023-03-11T06:22:50.257Z,12.83
2023-03-11T06:25:18.030Z,17.77
2023-03-11T06:27:52.627Z,15.53
2023-03-11T06:30:21.087Z,17.13
2023-03-11T06:32:57.358Z,15.13
2023-03-11T06:35:25.890Z,15.13
2023-03-11T06:37:52.856Z,17.20
2023-03-11T06:40:19.950Z,16.07
2023-03-11T06:42:48.884Z,12.50
2023-03-11T06:45:20.162Z,15.90
2023-03-11T06:47:49.509Z,15.10
2023-03-11T06:50:17.873Z,12.83
2023-03-11T06:52:45.140Z,19.13
2023-03-11T06:55:12.113Z,11.77
2023-03-11T06:57:39.603Z,14.47
2023-03-11T07:00:12.649Z,12.23
2023-03-11T07:02:42.882Z,10.73
2023-03-11T07:05:12.680Z,12.57
2023-03-11T07:07:40.105Z,16.27
2023-03-11T07:10:07.507Z,15.60
2023-03-11T07:12:35.819Z,15.53
2023-03-11T07:15:07.317Z,15.00
2023-03-11T07:17:36.049Z,14.10
2023-03-11T07:20:04.142Z,15.30
2023-03-11T07:22:32.190Z,18.97
2023-03-11T07:25:02.498Z,20.93
2023-03-11T07:27:30.572Z,16.07
2023-03-11T07:29:58.273Z,17.53
2023-03-11T07:32:27.926Z,18.90
2023-03-11T07:34:55.360Z,10.70
2023-03-11T07:37:22.916Z,13.30
2023-03-11T07:40:22.313Z,13.10
2023-03-11T07:42:50.048Z,11.60
2023-03-11T07:45:20.148Z,13.27
2023-03-11T07:47:47.360Z,16.10
2023-03-11T07:50:15.270Z,14.60
2023-03-11T07:52:43.594Z,20.27
2023-03-11T07:55:10.875Z,12.57
2023-03-11T07:57:41.208Z,7.33
2023-03-11T08:00:27.449Z,12.10
2023-03-11T08:02:57.936Z,13.53
2023-03-11T08:05:32.938Z,8.37
2023-03-11T08:08:03.358Z,10.87
2023-03-11T08:10:31.515Z,6.20
2023-03-11T08:13:04.597Z,10.30
2023-03-11T08:15:32.460Z,10.80
2023-03-11T08:18:02.192Z,9.70
2023-03-11T08:20:29.915Z,8.27
2023-03-11T08:22:59.530Z,6.93
2023-03-11T08:25:30.406Z,8.53
2023-03-11T08:28:00.534Z,11.03
2023-03-11T08:30:31.509Z,7.93
2023-03-11T08:33:06.277Z,9.67
2023-03-11T08:35:40.877Z,12.60
2023-03-11T08:38:11.443Z,14.73
2023-03-11T08:40:38.604Z,11.77
2023-03-11T08:43:06.351Z,5.40
2023-03-11T08:45:34.118Z,5.93
2023-03-11T08:48:01.270Z,5.27
2023-03-11T08:50:28.743Z,5.73
2023-03-11T08:53:03.603Z,6.90
2023-03-11T08:55:31.101Z,7.27
2023-03-11T08:57:58.792Z,4.00
2023-03-11T09:00:26.502Z,5.03
2023-03-11T09:02:53.763Z,8.03
2023-03-11T09:05:21.062Z,8.03
2023-03-11T09:07:49.596Z,7.07
2023-03-11T09:10:17.062Z,4.23
2023-03-11T09:12:44.946Z,4.30
2023-03-11T09:15:11.855Z,3.90
2023-03-11T09:17:39.356Z,8.03
2023-03-11T09:20:12.117Z,13.73
2023-03-11T09:22:39.624Z,2.70
2023-03-11T09:25:11.035Z,4.67
2023-03-11T09:27:41.689Z,3.20
2023-03-11T09:30:12.597Z,4.83
2023-03-11T09:32:44.578Z,6.37
2023-03-11T09:35:12.199Z,2.90
2023-03-11T09:37:39.476Z,7.33
2023-03-11T09:40:07.462Z,5.77
2023-03-11T09:42:46.150Z,4.37
2023-03-11T09:45:25.033Z,7.00
2023-03-11T09:48:18.364Z,10.23
2023-03-11T09:50:53.883Z,8.20
2023-03-11T09:53:38.225Z,2.63
2023-03-11T09:56:09.182Z,4.17
2023-03-11T09:58:47.202Z,3.13
2023-03-11T10:01:29.104Z,2.30
2023-03-11T10:04:01.703Z,3.23
2023-03-11T10:06:31.216Z,4.40
2023-03-11T10:09:01.163Z,3.83
2023-03-11T10:11:57.100Z,6.47
2023-03-11T10:14:37.895Z,1.80
2023-03-11T10:17:17.535Z,1.70
2023-03-11T10:20:07.058Z,6.60
2023-03-11T10:23:01.236Z,4.67
2023-03-11T10:25:47.937Z,4.17
2023-03-11T10:28:19.570Z,7.93
2023-03-11T10:30:53.077Z,3.10
2023-03-11T10:33:48.017Z,2.47
2023-03-11T10:36:31.718Z,3.40
2023-03-11T10:39:02.887Z,5.70
2023-03-11T10:41:43.683Z,3.23
2023-03-11T10:44:25.512Z,4.37
2023-03-11T10:46:53.888Z,2.60
2023-03-11T10:49:30.520Z,5.40
2023-03-11T10:51:58.688Z,5.00
2023-03-11T10:54:37.643Z,4.50
2023-03-11T10:57:31.959Z,5.77
2023-03-11T11:00:01.885Z,5.30
2023-03-11T11:02:38.896Z,5.67
2023-03-11T11:05:27.739Z,1.77
2023-03-11T11:08:12.278Z,4.23
2023-03-11T11:10:52.477Z,4.10
2023-03-11T11:13:22.907Z,2.50
2023-03-11T11:16:19.116Z,3.80
2023-03-11T11:18:54.598Z,3.47
2023-03-11T11:21:37.679Z,3.20
2023-03-11T11:24:21.198Z,3.63
2023-03-11T11:27:13.238Z,4.43
2023-03-11T11:29:44.591Z,3.37
2023-03-11T11:32:24.477Z,7.43
2023-03-11T11:35:05.324Z,4.07
2023-03-11T11:37:36.356Z,3.73
2023-03-11T11:40:15.930Z,4.50
2023-03-11T11:42:48.943Z,3.47
2023-03-11T11:45:27.625Z,6.17
2023-03-11T11:48:00.294Z,5.70
2023-03-11T11:50:33.610Z,10.17
2023-03-11T11:53:29.328Z,11.03
2023-03-11T11:55:57.748Z,3.60
2023-03-11T11:58:26.185Z,2.27
2023-03-11T12:01:06.004Z,2.03
2023-03-11T12:03:45.893Z,1.20
2023-03-11T12:06:41.893Z,3.70
2023-03-11T12:09:11.766Z,1.17
2023-03-11T12:11:49.980Z,1.23
2023-03-11T12:14:20.128Z,1.43
2023-03-11T12:17:04.094Z,1.70
2023-03-11T12:19:44.292Z,0.90
2023-03-11T12:22:39.415Z,1.30
2023-03-11T12:25:23.360Z,1.37
2023-03-11T12:28:06.476Z,2.63
2023-03-11T12:30:39.058Z,1.53
2023-03-11T12:33:19.128Z,2.00
2023-03-11T12:35:54.408Z,5.23
2023-03-11T12:38:27.249Z,4.90
2023-03-11T12:40:59.925Z,6.47
2023-03-11T12:43:31.624Z,3.20
2023-03-11T12:46:00.340Z,2.60
2023-03-11T12:48:30.238Z,2.87
2023-03-11T12:51:00.196Z,2.23
2023-03-11T12:53:44.011Z,3.00
2023-03-11T12:56:29.490Z,1.30
2023-03-11T12:59:22.454Z,1.17
2023-03-11T13:02:01.593Z,2.97
2023-03-11T13:04:42.166Z,2.10
2023-03-11T13:07:39.938Z,2.23
2023-03-11T13:10:33.873Z,1.63
2023-03-11T13:13:01.598Z,1.50
2023-03-11T13:15:35.529Z,1.93
2023-03-11T13:18:18.734Z,1.60
2023-03-11T13:20:49.455Z,1.97
2023-03-11T13:23:37.082Z,1.70
2023-03-11T13:26:10.018Z,1.80
2023-03-11T13:28:49.723Z,1.90
2023-03-11T13:31:44.333Z,2.27
2023-03-11T13:34:51.487Z,2.47
2023-03-11T13:37:21.490Z,1.20
2023-03-11T13:40:01.119Z,2.70
2023-03-11T13:42:49.253Z,1.37
2023-03-11T13:45:22.815Z,1.77
2023-03-11T13:47:51.344Z,1.60
2023-03-11T13:50:26.866Z,1.23
2023-03-11T13:52:55.310Z,2.10
2023-03-11T13:55:29.971Z,3.77
2023-03-11T13:57:58.066Z,5.50
2023-03-11T14:00:30.832Z,1.80
2023-03-11T14:03:01.858Z,2.37
2023-03-11T14:05:36.037Z,1.20
2023-03-11T14:08:19.006Z,2.27
2023-03-11T14:10:54.363Z,2.37
2023-03-11T14:13:22.355Z,2.67
2023-03-11T14:16:12.560Z,3.03
2023-03-11T14:18:41.882Z,5.70
2023-03-11T14:21:18.459Z,2.80
2023-03-11T14:23:48.247Z,2.70
2023-03-11T14:26:19.280Z,7.13
2023-03-11T14:28:50.902Z,6.93
2023-03-11T14:31:36.826Z,4.23
2023-03-11T14:34:10.754Z,5.13
2023-03-11T14:36:57.240Z,4.67
2023-03-11T14:42:47.138Z,3.70
2023-03-11T14:45:18.972Z,3.47
2023-03-11T14:48:29.788Z,2.07
2023-03-11T14:51:00.435Z,3.30
2023-03-11T14:53:30.332Z,4.00
2023-03-11T14:56:06.758Z,1.63
2023-03-11T14:58:55.721Z,2.60
2023-03-11T15:01:33.475Z,2.20
2023-03-11T15:04:21.303Z,1.60
2023-03-11T15:06:50.723Z,2.63
2023-03-11T15:09:20.991Z,2.80
2023-03-11T15:11:52.918Z,4.17
2023-03-11T15:14:32.146Z,3.50
2023-03-11T15:17:34.898Z,3.33
2023-03-11T15:20:07.620Z,4.83
2023-03-11T15:22:41.434Z,3.90
2023-03-11T15:25:18.058Z,3.73
2023-03-11T15:27:46.280Z,2.63
2023-03-11T15:30:27.892Z,4.77
2023-03-11T15:32:55.657Z,2.80
2023-03-11T15:35:25.809Z,3.87
2023-03-11T15:38:25.698Z,2.83
2023-03-11T15:40:59.301Z,1.53
2023-03-11T15:43:35.965Z,2.60
2023-03-11T15:46:03.792Z,1.43
2023-03-11T15:48:31.517Z,2.87
2023-03-11T15:51:00.319Z,1.43
2023-03-11T15:53:29.969Z,1.80
2023-03-11T15:56:11.028Z,2.63
2023-03-11T15:58:38.439Z,2.30
2023-03-11T16:01:05.559Z,2.30
2023-03-11T16:03:32.915Z,2.33
2023-03-11T16:06:00.889Z,3.10
2023-03-11T16:08:27.977Z,2.90
2023-03-11T16:10:55.401Z,4.10
2023-03-11T16:13:22.846Z,3.03
2023-03-11T16:15:50.062Z,3.23
2023-03-11T16:18:17.128Z,1.83
2023-03-11T16:20:55.683Z,3.87
2023-03-11T16:23:36.153Z,4.17
2023-03-11T16:26:17.113Z,4.43
2023-03-11T16:28:44.421Z,5.30
2023-03-11T16:31:17.204Z,4.03
2023-03-11T16:33:53.670Z,2.20
2023-03-11T16:36:22.487Z,2.30
2023-03-11T16:38:51.566Z,2.30
2023-03-11T16:41:19.521Z,3.60
2023-03-11T16:43:47.290Z,2.50
2023-03-11T16:46:16.190Z,2.90
2023-03-11T16:48:43.780Z,2.50
2023-03-11T16:51:13.817Z,1.87
2023-03-11T16:53:43.571Z,1.60
2023-03-11T16:56:10.657Z,1.33
2023-03-11T16:58:37.695Z,2.60
2023-03-11T17:01:04.808Z,2.17
2023-03-11T17:03:42.004Z,1.40
2023-03-11T17:06:10.143Z,3.03
2023-03-11T17:08:37.178Z,4.33
2023-03-11T17:11:04.323Z,4.63
2023-03-11T17:13:31.310Z,2.30
2023-03-11T17:16:00.047Z,2.03
2023-03-11T17:18:27.650Z,2.27
2023-03-11T17:21:02.682Z,3.10
2023-03-11T17:23:30.207Z,2.60
2023-03-11T17:26:01.608Z,3.93
2023-03-11T17:28:31.243Z,3.50
2023-03-11T17:30:59.302Z,3.67
2023-03-11T17:33:26.489Z,2.70
2023-03-11T17:36:03.968Z,2.90
2023-03-11T17:38:31.176Z,5.83
2023-03-11T17:40:58.343Z,4.83
2023-03-11T17:43:25.669Z,2.50
2023-03-11T17:45:54.256Z,2.67
2023-03-11T17:48:21.482Z,2.53
2023-03-11T17:50:48.849Z,3.90
2023-03-11T17:53:15.969Z,4.27
2023-03-11T17:55:43.050Z,3.37
2023-03-11T17:58:10.121Z,2.50
2023-03-11T18:00:37.652Z,2.17
2023-03-11T18:03:04.813Z,3.73
2023-03-11T18:05:31.982Z,1.77
2023-03-11T18:07:59.053Z,5.23
2023-03-11T18:13:37.401Z,3.47
2023-03-11T18:16:10.837Z,2.10
2023-03-11T18:18:37.855Z,2.03
2023-03-11T18:21:13.809Z,1.80
2023-03-11T18:23:41.347Z,5.10
2023-03-11T18:26:10.297Z,3.07
2023-03-11T18:28:37.221Z,1.77
2023-03-11T18:31:06.982Z,1.87
2023-03-11T18:33:34.044Z,1.77
2023-03-11T18:36:13.017Z,1.30
2023-03-11T18:38:39.944Z,1.83
2023-03-11T18:41:06.753Z,1.80
2023-03-11T18:43:33.760Z,1.70
2023-03-11T18:46:01.402Z,2.70
2023-03-11T18:48:28.506Z,1.53
2023-03-11T18:50:55.926Z,1.30
2023-03-11T18:53:24.921Z,1.43
2023-03-11T18:55:53.180Z,1.60
2023-03-11T18:58:20.229Z,1.87
2023-03-11T19:00:47.078Z,2.13
2023-03-11T19:03:14.023Z,1.23
2023-03-11T19:05:48.981Z,1.87
2023-03-11T19:08:17.537Z,1.83
2023-03-11T19:10:44.440Z,5.03
2023-03-11T19:13:11.297Z,2.97
2023-03-11T19:15:42.113Z,1.50
2023-03-11T19:18:09.231Z,1.57
2023-03-11T19:20:36.538Z,1.87
2023-03-11T19:23:03.541Z,1.17
2023-03-11T19:25:30.507Z,1.33
2023-03-11T19:27:57.490Z,1.20
2023-03-11T19:30:24.677Z,1.43
2023-03-11T19:32:54.305Z,1.73
2023-03-11T19:35:22.465Z,1.37
2023-03-11T19:37:50.707Z,1.47
2023-03-11T19:40:18.024Z,1.30
2023-03-11T19:42:45.082Z,1.50
2023-03-11T19:45:11.977Z,3.50
2023-03-11T19:47:39.180Z,1.20
2023-03-11T19:50:06.808Z,1.47
2023-03-11T19:52:36.037Z,1.47
2023-03-11T19:55:03.513Z,1.10
2023-03-11T19:57:30.757Z,0.90
2023-03-11T19:59:57.608Z,1.13
2023-03-11T20:02:24.551Z,0.80
2023-03-11T20:04:51.698Z,1.20
2023-03-11T20:07:18.859Z,1.50
2023-03-11T20:09:45.810Z,1.20
2023-03-11T20:12:12.785Z,1.20
2023-03-11T20:14:41.445Z,1.07
2023-03-11T20:17:09.178Z,0.93
2023-03-11T20:19:36.522Z,1.80
2023-03-11T20:22:03.578Z,3.57
2023-03-11T20:24:30.421Z,0.83
2023-03-11T20:26:57.394Z,0.70
2023-03-11T20:29:24.453Z,1.20
2023-03-11T20:31:52.141Z,2.60
2023-03-11T20:34:19.387Z,1.17
2023-03-11T20:36:46.564Z,1.20
2023-03-11T20:39:13.445Z,1.30
2023-03-11T20:41:41.113Z,1.50
2023-03-11T20:44:11.121Z,0.97
2023-03-11T20:46:38.045Z,0.80
2023-03-11T20:49:05.121Z,0.70
2023-03-11T20:51:32.140Z,0.83
2023-03-11T20:53:59.245Z,3.17
2023-03-11T20:56:26.790Z,1.00
2023-03-11T20:58:55.952Z,0.80
2023-03-11T21:01:28.663Z,0.67
2023-03-11T21:03:58.272Z,0.90
2023-03-11T21:06:32.323Z,1.20
2023-03-11T21:09:00.885Z,0.60
2023-03-11T21:11:28.146Z,0.73
2023-03-11T21:13:55.556Z,0.90
2023-03-11T21:16:23.070Z,0.87
2023-03-11T21:18:50.473Z,0.70
2023-03-11T21:21:18.818Z,0.80
2023-03-11T21:23:46.627Z,0.60
2023-03-11T21:26:16.346Z,0.70
2023-03-11T21:28:46.688Z,2.57
2023-03-11T21:31:17.560Z,1.10
2023-03-11T21:33:45.089Z,0.90
2023-03-11T21:36:14.153Z,0.83
2023-03-11T21:38:41.398Z,1.43
2023-03-11T21:41:18.196Z,1.13
2023-03-11T21:43:46.629Z,1.90
2023-03-11T21:46:17.407Z,1.00
2023-03-11T21:48:45.762Z,1.17
2023-03-11T21:51:13.577Z,1.30
2023-03-11T21:53:40.958Z,0.87
2023-03-11T21:56:08.092Z,1.10
2023-03-11T21:58:35.011Z,0.83
2023-03-11T22:01:02.156Z,0.93
2023-03-11T22:03:30.797Z,1.00
2023-03-11T22:06:05.330Z,1.80
2023-03-11T22:08:32.566Z,1.50
2023-03-11T22:10:59.628Z,1.23
2023-03-11T22:13:26.838Z,0.73
2023-03-11T22:15:53.877Z,1.10
2023-03-11T22:18:20.896Z,1.20
2023-03-11T22:20:48.071Z,1.80
2023-03-11T22:23:14.933Z,1.20
2023-03-11T22:25:41.790Z,1.80
2023-03-11T22:28:12.174Z,2.60
2023-03-11T22:30:39.287Z,1.07
2023-03-11T22:33:06.748Z,5.03
2023-03-11T22:35:34.071Z,1.20
2023-03-11T22:38:01.054Z,1.20
2023-03-11T22:40:28.103Z,1.23
2023-03-11T22:42:55.078Z,2.10
2023-03-11T22:45:22.963Z,1.57
2023-03-11T22:47:50.703Z,1.47
2023-03-11T22:50:18.516Z,4.40
2023-03-11T22:52:45.643Z,4.90
2023-03-11T22:55:12.596Z,1.40
2023-03-11T22:57:40.771Z,4.10
2023-03-11T23:00:20.999Z,7.53
2023-03-11T23:02:52.749Z,3.43
2023-03-11T23:05:20.102Z,2.10
2023-03-11T23:07:47.273Z,4.63
2023-03-11T23:10:15.244Z,4.67
2023-03-11T23:12:42.475Z,2.90
2023-03-11T23:15:13.008Z,3.73
2023-03-11T23:17:40.185Z,5.03
2023-03-11T23:20:11.149Z,5.67
2023-03-11T23:22:39.622Z,1.77
2023-03-11T23:25:08.577Z,5.00
2023-03-11T23:27:35.609Z,5.70
2023-03-11T23:30:02.633Z,6.77
2023-03-11T23:32:29.912Z,4.50
2023-03-11T23:34:56.844Z,5.03
2023-03-11T23:37:23.984Z,2.87
2023-03-11T23:39:50.922Z,1.77
2023-03-11T23:42:25.449Z,2.00
2023-03-11T23:44:53.206Z,2.50
2023-03-11T23:47:20.618Z,2.60
2023-03-11T23:49:47.504Z,4.20
2023-03-11T23:52:14.535Z,7.53
2023-03-11T23:54:41.428Z,5.63
2023-03-11T23:57:08.410Z,4.53
2023-03-11T23:59:35.372Z,4.57
